Time;durP1;ratioP1;P1;durP2;ratioP2;P2;SDS_P1;SDS_P2;PMS_P1;PMS_P2;Temp;Humidity;BMP_temperature;BMP_pressure;BME280_temperature;BME280_humidity;BME280_pressure;Samples;Min_cycle;Max_cycle;Signal;HPM_P1;HPM_P2
2024/02/01 00:01:10;;;;;;;;;;;;;;;4.96;100.00;101910.25;5112143;28;20041;-75
2024/02/01 00:03:35;;;;;;;;;;;;;;;4.94;100.00;101901.53;5111063;28;20371;-75
2024/02/01 00:06:01;;;;;;;;;;;;;;;4.82;100.00;101900.78;5110296;28;20045;-75
2024/02/01 00:08:26;;;;;;;;;;;;;;;4.78;100.00;101906.50;5111969;28;19927;-76
2024/02/01 00:10:51;;;;;;;;;;;;;;;4.90;100.00;101902.78;5111244;28;19923;-76
2024/02/01 00:13:16;;;;;;;;;;;;;;;4.79;100.00;101900.19;5112109;28;19927;-76
2024/02/01 00:15:42;;;;;;;;;;;;;;;4.79;100.00;101908.19;5111234;28;20003;-77
2024/02/01 00:18:07;;;;;;;;;;;;;;;4.83;100.00;101909.63;5111909;28;20022;-78
2024/02/01 00:20:32;;;;;;;;;;;;;;;4.83;100.00;101906.97;5111622;28;20045;-77
2024/02/01 00:22:57;;;;;;;;;;;;;;;4.83;100.00;101915.81;5111168;28;20003;-77
2024/02/01 00:25:23;;;;;;;;;;;;;;;4.87;100.00;101903.06;5111510;28;19919;-78
2024/02/01 00:27:48;;;;;;;;;;;;;;;4.88;100.00;101915.41;5111839;28;20396;-78
2024/02/01 00:30:14;;;;;;;;;;;;;;;4.85;100.00;101915.69;5109321;28;20371;-78
2024/02/01 00:32:39;;;;;;;;;;;;;;;4.83;100.00;101912.28;5107135;28;20409;-78
2024/02/01 00:35:04;;;;;;;;;;;;;;;4.90;100.00;101910.81;5108317;28;19923;-78
2024/02/01 00:37:29;;;;;;;;;;;;;;;4.85;100.00;101913.00;5107235;28;19930;-78
2024/02/01 00:39:55;;;;;;;;;;;;;;;4.84;100.00;101914.00;5111713;28;20064;-78
2024/02/01 00:42:20;;;;;;;;;;;;;;;4.99;100.00;101918.00;5116144;28;19920;-77
2024/02/01 00:44:45;;;;;;;;;;;;;;;5.01;100.00;101909.88;5119664;28;19938;-78
2024/02/01 00:47:10;;;;;;;;;;;;;;;5.03;100.00;101915.06;5112818;28;20355;-78
2024/02/01 00:49:35;;;;;;;;;;;;;;;4.94;100.00;101906.84;5111519;28;20462;-78
2024/02/01 00:52:01;;;;;;;;;;;;;;;4.95;100.00;101900.53;5102566;28;20386;-78
2024/02/01 00:54:26;;;;;;;;;;;;;;;5.00;100.00;101908.19;5109541;28;20443;-77
2024/02/01 00:56:52;;;;;;;;;;;;;;;5.09;100.00;101906.53;5114526;28;20340;-78
2024/02/01 00:59:17;;;;;;;;;;;;;;;5.13;100.00;101898.09;5115387;28;20301;-78
2024/02/01 01:01:43;;;;;;;;;;;;;;;5.15;100.00;101895.28;5115941;28;19927;-78
2024/02/01 01:04:09;;;;;;;;;;;;;;;5.13;100.00;101891.91;5115411;28;19923;-78
2024/02/01 01:06:34;;;;;;;;;;;;;;;5.27;100.00;101894.22;5111602;28;19939;-77
2024/02/01 01:08:59;;;;;;;;;;;;;;;5.22;100.00;101891.09;5113788;28;19920;-77
2024/02/01 01:11:25;;;;;;;;;;;;;;;5.25;100.00;101889.97;5114619;28;19920;-78
2024/02/01 01:13:51;;;;;;;;;;;;;;;5.30;100.00;101888.59;5114002;28;19926;-78
2024/02/01 01:16:16;;;;;;;;;;;;;;;5.31;100.00;101882.28;5115205;28;19920;-78
2024/02/01 01:18:41;;;;;;;;;;;;;;;5.28;100.00;101887.91;5115150;28;19928;-78
2024/02/01 01:21:06;;;;;;;;;;;;;;;5.34;100.00;101883.84;5114069;28;19944;-78
2024/02/01 01:23:32;;;;;;;;;;;;;;;5.37;100.00;101883.56;5115114;28;19926;-78
2024/02/01 01:25:57;;;;;;;;;;;;;;;5.38;100.00;101884.41;5114648;28;19924;-78
2024/02/01 01:28:22;;;;;;;;;;;;;;;5.33;100.00;101882.16;5113811;28;19931;-78
2024/02/01 01:30:49;;;;;;;;;;;;;;;5.33;100.00;101876.81;5115248;28;20384;-78
2024/02/01 01:33:14;;;;;;;;;;;;;;;5.40;100.00;101882.44;5115137;28;19920;-78
2024/02/01 01:35:40;;;;;;;;;;;;;;;5.34;100.00;101864.28;5109983;28;19965;-78
2024/02/01 01:38:05;;;;;;;;;;;;;;;5.33;100.00;101876.81;5113454;28;19927;-78
2024/02/01 01:40:30;;;;;;;;;;;;;;;5.37;100.00;101874.69;5114914;28;19920;-78
2024/02/01 01:42:55;;;;;;;;;;;;;;;5.29;100.00;101864.72;5113892;28;19927;-78
2024/02/01 01:45:21;;;;;;;;;;;;;;;5.38;100.00;101869.25;5112969;28;20389;-77
2024/02/01 01:47:46;;;;;;;;;;;;;;;5.31;100.00;101876.94;5114984;28;19919;-78
2024/02/01 01:50:11;;;;;;;;;;;;;;;5.26;100.00;101876.50;5113557;28;20010;-78
2024/02/01 01:52:36;;;;;;;;;;;;;;;5.31;100.00;101876.94;5114086;28;20303;-77
2024/02/01 01:55:05;;;;;;;;;;;;;;;5.37;100.00;101878.22;5094917;28;20315;-77
2024/02/01 01:57:30;;;;;;;;;;;;;;;5.36;100.00;101886.34;5110898;28;19927;-77
2024/02/01 01:59:55;;;;;;;;;;;;;;;5.31;100.00;101876.94;5113127;28;19920;-77
2024/02/01 02:02:21;;;;;;;;;;;;;;;5.32;100.00;101875.13;5114730;28;19964;-78
2024/02/01 02:04:47;;;;;;;;;;;;;;;5.35;100.00;101874.00;5113540;28;20402;-77
2024/02/01 02:07:12;;;;;;;;;;;;;;;5.42;100.00;101867.97;5113619;28;20022;-77
2024/02/01 02:09:37;;;;;;;;;;;;;;;5.41;100.00;101874.28;5114535;28;19967;-78
2024/02/01 02:12:03;;;;;;;;;;;;;;;5.44;100.00;101881.19;5095732;28;19966;-78
2024/02/01 02:14:28;;;;;;;;;;;;;;;5.45;100.00;101896.25;5112711;28;19920;-78
2024/02/01 02:16:53;;;;;;;;;;;;;;;5.47;100.00;101883.59;5113116;28;20022;-77
2024/02/01 02:19:19;;;;;;;;;;;;;;;5.47;100.00;101878.25;5113632;28;19967;-78
2024/02/01 02:21:46;;;;;;;;;;;;;;;5.46;100.00;101887.25;5111036;28;19931;-78
2024/02/01 02:24:12;;;;;;;;;;;;;;;5.52;100.00;101884.00;5111873;28;19915;-78
2024/02/01 02:26:37;;;;;;;;;;;;;;;5.49;100.00;101888.78;5112238;28;20307;-77
2024/02/01 02:29:03;;;;;;;;;;;;;;;5.50;100.00;101895.81;5107035;28;19923;-78
2024/02/01 02:31:28;;;;;;;;;;;;;;;5.49;100.00;101892.28;5111669;28;19919;-77
2024/02/01 02:33:54;;;;;;;;;;;;;;;5.55;100.00;101893.59;5113894;28;19923;-77
2024/02/01 02:36:19;;;;;;;;;;;;;;;5.54;100.00;101895.41;5112928;28;19990;-77
2024/02/01 02:38:44;;;;;;;;;;;;;;;5.55;100.00;101891.75;5114014;28;19927;-76
2024/02/01 02:41:09;;;;;;;;;;;;;;;5.54;100.00;101894.56;5113083;28;20323;-77
2024/02/01 02:43:34;;;;;;;;;;;;;;;5.55;100.00;101901.59;5111741;28;20377;-77
2024/02/01 02:46:00;;;;;;;;;;;;;;;5.56;100.00;101904.13;5113688;28;19926;-76
2024/02/01 02:48:25;;;;;;;;;;;;;;;5.62;100.00;101908.06;5121367;28;20414;-77
2024/02/01 02:50:50;;;;;;;;;;;;;;;5.65;100.00;101912.31;5113762;27;20402;-76
2024/02/01 02:53:15;;;;;;;;;;;;;;;5.69;100.00;101903.88;5114445;28;20351;-76
2024/02/01 02:55:41;;;;;;;;;;;;;;;5.70;100.00;101910.03;5113251;28;19920;-77
2024/02/01 02:58:06;;;;;;;;;;;;;;;5.69;100.00;101909.22;5113039;28;19930;-76
2024/02/01 03:00:32;;;;;;;;;;;;;;;5.71;100.00;101919.75;5113018;28;20010;-77
2024/02/01 03:02:57;;;;;;;;;;;;;;;5.76;100.00;101918.34;5113820;28;19916;-77
2024/02/01 03:05:26;;;;;;;;;;;;;;;5.84;100.00;101917.66;5110437;28;19969;-76
2024/02/01 03:07:53;;;;;;;;;;;;;;;5.83;100.00;101915.94;5112534;28;19927;-77
2024/02/01 03:10:19;;;;;;;;;;;;;;;5.90;100.00;101924.28;5112688;28;19912;-77
2024/02/01 03:12:44;;;;;;;;;;;;;;;5.92;100.00;101925.81;5110929;28;20380;-76
2024/02/01 03:15:09;;;;;;;;;;;;;;;5.95;100.00;101934.56;5108706;28;20259;-78
2024/02/01 03:17:35;;;;;;;;;;;;;;;5.96;100.00;101936.25;5112023;28;19919;-78
2024/02/01 03:20:00;;;;;;;;;;;;;;;5.95;100.00;101934.56;5112061;28;19916;-77
2024/02/01 03:22:27;;;;;;;;;;;;;;;5.98;100.00;101939.63;5113327;28;19937;-77
2024/02/01 03:24:58;;;;;;;;;;;;;;;5.97;100.00;101927.25;5112970;28;19927;-75
2024/02/01 03:27:26;;;;;;;;;;;;;;;6.02;100.00;101939.22;5111772;28;19926;-77
2024/02/01 03:29:52;;;;;;;;;;;;;;;6.04;100.00;101949.78;5110225;28;19922;-77
2024/02/01 03:32:18;;;;;;;;;;;;;;;6.04;100.00;101947.09;5111787;28;19936;-77
2024/02/01 03:34:43;;;;;;;;;;;;;;;6.02;100.00;101957.94;5107435;28;20371;-78
2024/02/01 03:37:14;;;;;;;;;;;;;;;6.01;100.00;101961.59;5111487;28;19927;-77
2024/02/01 03:39:39;;;;;;;;;;;;;;;6.03;100.00;101961.44;5113341;28;19919;-77
2024/02/01 03:42:05;;;;;;;;;;;;;;;6.01;100.00;101960.72;5111925;28;19927;-77
2024/02/01 03:44:30;;;;;;;;;;;;;;;6.04;100.00;101965.81;5105349;28;19919;-77
2024/02/01 03:46:56;;;;;;;;;;;;;;;6.03;100.00;101962.31;5113420;28;20294;-77
2024/02/01 03:49:21;;;;;;;;;;;;;;;6.03;100.00;101964.13;5111475;28;19983;-77
2024/02/01 03:51:46;;;;;;;;;;;;;;;6.07;100.00;101955.69;5110836;28;19923;-76
2024/02/01 03:54:11;;;;;;;;;;;;;;;6.08;100.00;101959.19;5111441;28;19930;-77
2024/02/01 03:56:40;;;;;;;;;;;;;;;6.05;100.00;101968.34;5110921;28;20371;-77
2024/02/01 03:59:05;;;;;;;;;;;;;;;6.04;100.00;101971.16;5112686;28;19926;-77
2024/02/01 04:01:30;;;;;;;;;;;;;;;6.04;100.00;101972.00;5112558;28;19919;-77
2024/02/01 04:03:56;;;;;;;;;;;;;;;6.07;100.00;101982.44;5109555;28;19924;-77
2024/02/01 04:06:25;;;;;;;;;;;;;;;6.03;100.00;101983.69;5111847;28;19972;-76
2024/02/01 04:08:50;;;;;;;;;;;;;;;6.01;100.00;101993.66;5111013;28;19919;-76
2024/02/01 04:11:16;;;;;;;;;;;;;;;6.02;100.00;101999.84;5111135;28;19965;-76
2024/02/01 04:13:41;;;;;;;;;;;;;;;6.07;100.00;102019.00;5110226;28;19971;-77
2024/02/01 04:16:06;;;;;;;;;;;;;;;6.05;100.00;102026.31;5110029;28;19962;-77
2024/02/01 04:18:31;;;;;;;;;;;;;;;6.03;100.00;102030.94;5109759;28;19935;-77
2024/02/01 04:20:57;;;;;;;;;;;;;;;6.01;100.00;102035.56;5109952;28;20375;-77
2024/02/01 04:23:22;;;;;;;;;;;;;;;5.96;100.00;102043.16;5111888;28;19967;-77
2024/02/01 04:25:47;;;;;;;;;;;;;;;5.92;100.00;102053.25;5111461;28;19992;-77
2024/02/01 04:28:14;;;;;;;;;;;;;;;5.88;100.00;102050.00;5111661;28;19920;-77
2024/02/01 04:30:40;;;;;;;;;;;;;;;5.84;100.00;102051.25;5111667;28;19920;-77
2024/02/01 04:33:06;;;;;;;;;;;;;;;5.81;100.00;102054.22;5111567;28;19920;-77
2024/02/01 04:35:31;;;;;;;;;;;;;;;5.74;100.00;102048.56;5110450;28;20010;-77
2024/02/01 04:37:56;;;;;;;;;;;;;;;5.65;100.00;102065.41;5109943;28;19924;-78
2024/02/01 04:40:21;;;;;;;;;;;;;;;5.60;100.00;102080.97;5109816;28;20064;-78
2024/02/01 04:42:51;;;;;;;;;;;;;;;5.46;100.00;102076.88;5111510;28;20021;-78
2024/02/01 04:45:18;;;;;;;;;;;;;;;5.29;100.00;102089.84;5111566;28;19922;-77
2024/02/01 04:47:43;;;;;;;;;;;;;;;5.12;100.00;102093.06;5111750;28;20042;-78
2024/02/01 04:50:08;;;;;;;;;;;;;;;4.97;100.00;102093.41;5111348;28;20068;-77
2024/02/01 04:52:33;;;;;;;;;;;;;;;4.86;100.00;102109.47;5113735;28;19927;-77
2024/02/01 04:54:59;;;;;;;;;;;;;;;4.72;100.00;102109.78;5119533;28;19977;-77
2024/02/01 04:57:24;;;;;;;;;;;;;;;4.62;100.00;102107.88;5112758;28;19920;-77
2024/02/01 04:59:49;;;;;;;;;;;;;;;4.54;100.00;102111.16;5103563;28;20003;-78
2024/02/01 05:02:15;;;;;;;;;;;;;;;4.49;100.00;102125.84;5112199;28;20372;-77
2024/02/01 05:04:40;;;;;;;;;;;;;;;4.34;100.00;102126.13;5110613;28;20332;-78
2024/02/01 05:07:05;;;;;;;;;;;;;;;4.20;100.00;102135.22;5111334;28;19920;-77
2024/02/01 05:09:34;;;;;;;;;;;;;;;4.13;100.00;102133.19;5111341;28;19953;-77
2024/02/01 05:12:00;;;;;;;;;;;;;;;3.98;100.00;102130.78;5109850;28;19938;-77
2024/02/01 05:14:25;;;;;;;;;;;;;;;3.85;100.00;102132.72;5108333;28;19923;-78
2024/02/01 05:16:51;;;;;;;;;;;;;;;3.74;100.00;102138.88;5108791;28;19928;-77
2024/02/01 05:19:17;;;;;;;;;;;;;;;3.65;100.00;102140.47;5108891;28;20269;-77
2024/02/01 05:21:42;;;;;;;;;;;;;;;3.61;100.00;102154.97;5110582;28;19931;-77
2024/02/01 05:24:13;;;;;;;;;;;;;;;3.54;100.00;102153.72;5111231;28;19920;-77
2024/02/01 05:26:43;;;;;;;;;;;;;;;3.45;100.00;102169.47;5110556;28;19927;-77
2024/02/01 05:29:11;;;;;;;;;;;;;;;3.39;100.00;102174.41;5111535;28;19927;-77
2024/02/01 05:31:37;;;;;;;;;;;;;;;3.45;100.00;102172.13;5111616;28;19923;-77
2024/02/01 05:34:11;;;;;;;;;;;;;;;3.45;100.00;102177.44;5109891;28;19931;-77
2024/02/01 05:36:36;;;;;;;;;;;;;;;3.42;100.00;102184.84;5108777;28;19927;-77
2024/02/01 05:39:05;;;;;;;;;;;;;;;3.40;100.00;102189.41;5111562;28;19927;-77
2024/02/01 05:41:30;;;;;;;;;;;;;;;3.39;100.00;102188.56;5112228;28;19924;-77
2024/02/01 05:43:56;;;;;;;;;;;;;;;3.37;100.00;102187.81;5114985;28;19989;-77
2024/02/01 05:46:21;;;;;;;;;;;;;;;3.30;100.00;102195.41;5114876;28;19919;-77
2024/02/01 05:48:46;;;;;;;;;;;;;;;3.22;100.00;102197.84;5114221;28;20006;-77
2024/02/01 05:51:11;;;;;;;;;;;;;;;3.14;100.00;102206.38;5114434;28;19963;-77
2024/02/01 05:53:37;;;;;;;;;;;;;;;3.05;100.00;102207.06;5113538;28;19934;-77
2024/02/01 05:56:02;;;;;;;;;;;;;;;2.90;100.00;102214.38;5112266;28;19927;-77
2024/02/01 05:58:27;;;;;;;;;;;;;;;2.87;100.00;102215.44;5114427;28;19920;-78
2024/02/01 06:00:53;;;;;;;;;;;;;;;2.71;100.00;102217.50;5115883;28;19926;-77
2024/02/01 06:03:18;;;;;;;;;;;;;;;2.55;100.00;102226.59;5114102;28;19966;-77
2024/02/01 06:05:48;;;;;;;;;;;;;;;2.45;100.00;102228.22;5113997;28;19931;-77
2024/02/01 06:08:13;;;;;;;;;;;;;;;2.32;100.00;102240.66;5114849;28;20294;-78
2024/02/01 06:10:38;;;;;;;;;;;;;;;2.26;100.00;102242.81;5112372;28;20014;-77
2024/02/01 06:13:04;;;;;;;;;;;;;;;2.23;100.00;102247.47;5113794;28;20014;-77
2024/02/01 06:15:29;;;;;;;;;;;;;;;2.21;100.00;102244.94;5114718;28;20014;-78
2024/02/01 06:17:54;;;;;;;;;;;;;;;2.07;100.00;102243.25;5113452;28;20008;-77
2024/02/01 06:20:20;;;;;;;;;;;;;;;2.09;100.00;102257.28;5113869;28;19919;-76
2024/02/01 06:22:45;;;;;;;;;;;;;;;2.13;100.00;102255.25;5114639;28;19919;-77
2024/02/01 06:25:11;;;;;;;;;;;;;;;1.98;100.00;102259.81;5112505;28;19962;-77
2024/02/01 06:27:37;;;;;;;;;;;;;;;1.91;100.00;102264.72;5112771;28;19919;-77
2024/02/01 06:30:02;;;;;;;;;;;;;;;1.88;100.00;102275.53;5114878;28;20022;-76
2024/02/01 06:32:30;;;;;;;;;;;;;;;1.90;100.00;102281.59;5114004;28;19920;-76
2024/02/01 06:35:04;;;;;;;;;;;;;;;1.88;100.00;102279.97;5127512;28;19915;-76
2024/02/01 06:37:30;;;;;;;;;;;;;;;1.81;100.00;102279.56;5127359;28;19931;-77
2024/02/01 06:40:48;;;;;;;;;;;;;;;1.91;100.00;102280.66;5120150;28;19968;-78
2024/02/01 06:43:08;;;;;;;;;;;;;;;1.85;100.00;102274.91;5102009;28;19929;-78
2024/02/01 06:45:44;;;;;;;;;;;;;;;1.80;100.00;102283.16;5113999;28;19923;-77
2024/02/01 06:48:12;;;;;;;;;;;;;;;1.82;100.00;102281.25;5114589;28;19924;-78
2024/02/01 06:50:57;;;;;;;;;;;;;;;1.80;100.00;102281.38;5107802;28;19969;-78
2024/02/01 06:53:33;;;;;;;;;;;;;;;1.79;100.00;102286.78;5108548;28;19985;-79
2024/02/01 06:56:01;;;;;;;;;;;;;;;1.67;100.00;102294.63;5103451;28;19934;-79
2024/02/01 06:59:30;;;;;;;;;;;;;;;1.63;100.00;102310.84;5109026;28;20497;-78
2024/02/01 07:01:24;;;;;;;;;;;;;;;1.69;100.00;102312.25;5118728;28;19937;-78
2024/02/01 07:04:15;;;;;;;;;;;;;;;1.67;100.00;102309.72;5113061;28;19927;-78
2024/02/01 07:07:04;;;;;;;;;;;;;;;1.65;100.00;102315.09;5111682;28;19927;-78
2024/02/01 07:09:36;;;;;;;;;;;;;;;1.68;100.00;102322.00;5111286;28;19931;-77
2024/02/01 07:12:15;;;;;;;;;;;;;;;1.69;100.00;102315.75;5110216;28;20382;-77
2024/02/01 07:14:41;;;;;;;;;;;;;;;1.74;100.00;102310.97;5107056;28;19920;-78
2024/02/01 07:17:27;;;;;;;;;;;;;;;1.76;100.00;102319.69;5110543;28;20462;-75
2024/02/01 07:20:01;;;;;;;;;;;;;;;1.75;100.00;102319.81;5109981;28;19923;-74
2024/02/01 07:22:38;;;;;;;;;;;;;;;1.66;100.00;102330.06;5111288;28;19916;-74
2024/02/01 07:25:10;;;;;;;;;;;;;;;1.60;100.00;102341.09;5109018;28;19984;-74
2024/02/01 07:57:51;;;;;;;;;;;;;;;3.84;100.00;102424.06;5110463;28;20426;-76
2024/02/01 08:00:19;;;;;;;;;;;;;;;4.23;100.00;102433.53;5104090;28;19939;-75
2024/02/01 08:02:50;;;;;;;;;;;;;;;4.47;100.00;102430.00;5100306;28;20042;-78
2024/02/01 08:07:59;;;;;;;;;;;;;;;4.80;100.00;102431.00;5110283;28;19977;-78
2024/02/01 08:10:25;;;;;;;;;;;;;;;5.13;100.00;102436.47;5109185;28;20314;-80
2024/02/01 08:12:50;;;;;;;;;;;;;;;5.28;100.00;102440.59;5107285;28;20521;-78
2024/02/01 08:15:19;;;;;;;;;;;;;;;5.16;100.00;102446.91;5108391;28;19924;-79
2024/02/01 08:17:46;;;;;;;;;;;;;;;5.34;100.00;102441.94;5108191;28;19931;-80
2024/02/01 08:20:12;;;;;;;;;;;;;;;5.41;100.00;102444.97;5108578;28;19924;-85
2024/02/01 08:22:41;;;;;;;;;;;;;;;5.56;99.12;102446.38;5109217;28;19920;-79
2024/02/01 08:25:07;;;;;;;;;;;;;;;5.42;98.88;102452.00;5109883;28;20045;-84
2024/02/01 08:27:33;;;;;;;;;;;;;;;5.36;100.00;102460.50;5110330;28;19954;-82
2024/02/01 08:30:12;;;;;;;;;;;;;;;5.07;100.00;102452.97;5109885;28;19971;-78
2024/02/01 08:32:37;;;;;;;;;;;;;;;4.78;100.00;102443.63;5105720;28;19919;-78
2024/02/01 08:35:09;;;;;;;;;;;;;;;4.41;100.00;102443.78;5109374;28;19923;-78
2024/02/01 08:37:34;;;;;;;;;;;;;;;4.19;100.00;102452.56;5106241;28;19924;-77
2024/02/01 08:39:59;;;;;;;;;;;;;;;3.92;100.00;102457.16;5108564;28;19919;-78
2024/02/01 08:42:29;;;;;;;;;;;;;;;3.69;100.00;102461.50;5109856;28;20410;-78
2024/02/01 08:44:54;;;;;;;;;;;;;;;3.63;100.00;102452.13;5109909;28;20291;-78
2024/02/01 08:47:23;;;;;;;;;;;;;;;3.66;100.00;102472.38;5109377;28;20402;-78
2024/02/01 08:49:48;;;;;;;;;;;;;;;3.51;100.00;102468.16;5110219;28;20141;-78
2024/02/01 08:52:15;;;;;;;;;;;;;;;3.49;100.00;102465.59;5109065;28;20348;-78
2024/02/01 08:54:40;;;;;;;;;;;;;;;3.54;100.00;102467.94;5107372;28;19926;-78
2024/02/01 08:57:13;;;;;;;;;;;;;;;3.53;100.00;102476.91;5108095;28;19920;-78
2024/02/01 08:59:38;;;;;;;;;;;;;;;3.55;100.00;102474.94;5109845;28;19926;-78
2024/02/01 09:02:13;;;;;;;;;;;;;;;3.56;100.00;102479.31;5109025;28;19920;-78
2024/02/01 09:04:38;;;;;;;;;;;;;;;3.58;100.00;102496.03;5108952;28;19951;-78
2024/02/01 09:07:03;;;;;;;;;;;;;;;3.67;100.00;102515.84;5112214;28;20175;-78
2024/02/01 09:09:28;;;;;;;;;;;;;;;3.72;100.00;102498.56;5117068;28;19959;-78
2024/02/01 09:11:54;;;;;;;;;;;;;;;3.74;100.00;102503.78;5108018;28;19957;-78
2024/02/01 09:14:19;;;;;;;;;;;;;;;3.76;100.00;102500.03;5109698;28;19919;-78
2024/02/01 09:16:44;;;;;;;;;;;;;;;3.83;100.00;102500.44;5111868;28;19919;-78
2024/02/01 09:19:14;;;;;;;;;;;;;;;3.90;100.00;102500.84;5113023;28;19920;-78
2024/02/01 09:21:39;;;;;;;;;;;;;;;3.91;100.00;102507.88;5113557;28;19920;-78
2024/02/01 09:24:05;;;;;;;;;;;;;;;3.97;100.00;102512.78;5113199;28;19927;-78
2024/02/01 09:26:30;;;;;;;;;;;;;;;4.00;100.00;102523.22;5108484;28;19976;-77
2024/02/01 09:28:56;;;;;;;;;;;;;;;4.09;100.00;102521.69;5113434;28;20245;-77
2024/02/01 09:31:21;;;;;;;;;;;;;;;4.15;100.00;102536.38;5113312;28;20451;-78
2024/02/01 09:33:48;;;;;;;;;;;;;;;4.14;100.00;102540.00;5112365;28;20306;-78
2024/02/01 09:36:14;;;;;;;;;;;;;;;4.20;100.00;102536.91;5114033;28;19927;-78
2024/02/01 09:38:39;;;;;;;;;;;;;;;4.27;100.00;102539.94;5112322;28;19942;-78
2024/02/01 09:41:04;;;;;;;;;;;;;;;4.30;100.00;102540.56;5111781;28;19927;-79
2024/02/01 09:43:30;;;;;;;;;;;;;;;4.47;100.00;102534.00;5094724;28;19965;-78
2024/02/01 09:45:56;;;;;;;;;;;;;;;4.48;100.00;102535.69;5112621;28;19923;-78
2024/02/01 09:48:21;;;;;;;;;;;;;;;4.53;100.00;102540.69;5111035;28;19930;-77
2024/02/01 09:50:51;;;;;;;;;;;;;;;4.53;100.00;102546.84;5111043;28;19984;-77
2024/02/01 09:53:21;;;;;;;;;;;;;;;4.49;100.00;102533.88;5111142;28;19924;-78
2024/02/01 09:55:46;;;;;;;;;;;;;;;4.56;100.00;102540.44;5111545;28;20414;-78
2024/02/01 09:58:11;;;;;;;;;;;;;;;4.61;100.00;102550.75;5094084;28;19928;-78
2024/02/01 10:00:39;;;;;;;;;;;;;;;4.55;100.00;102555.59;5112055;28;20337;-78
2024/02/01 10:03:05;;;;;;;;;;;;;;;4.60;100.00;102565.06;5112565;28;19996;-78
2024/02/01 10:05:32;;;;;;;;;;;;;;;4.70;100.00;102563.41;5112788;28;19955;-78
2024/02/01 10:07:59;;;;;;;;;;;;;;;4.79;100.00;102567.19;5111626;28;20436;-78
2024/02/01 10:10:24;;;;;;;;;;;;;;;4.81;100.00;102559.91;5112771;28;19920;-78
2024/02/01 10:12:51;;;;;;;;;;;;;;;4.75;100.00;102558.56;5105296;28;20018;-78
2024/02/01 10:15:30;;;;;;;;;;;;;;;4.81;100.00;102570.59;5108989;28;20224;-77
2024/02/01 10:17:55;;;;;;;;;;;;;;;4.76;100.00;102567.44;5110693;28;19927;-78
2024/02/01 10:20:54;;;;;;;;;;;;;;;4.88;100.00;102586.97;5113294;28;19920;-78
2024/02/01 10:23:15;;;;;;;;;;;;;;;5.01;100.00;102593.13;5107493;28;19973;-78
2024/02/01 10:25:41;;;;;;;;;;;;;;;5.09;100.00;102597.88;5111331;28;20031;-78
2024/02/01 10:28:08;;;;;;;;;;;;;;;5.13;100.00;102586.81;5093556;28;19927;-78
2024/02/01 10:30:34;;;;;;;;;;;;;;;5.21;100.00;102594.25;5111470;28;19938;-78
2024/02/01 10:33:09;;;;;;;;;;;;;;;5.31;100.00;102605.06;5110221;28;20002;-78
2024/02/01 10:35:35;;;;;;;;;;;;;;;5.33;100.00;102613.81;5112120;28;20363;-78
2024/02/01 10:38:01;;;;;;;;;;;;;;;5.42;100.00;102617.59;5108998;28;19924;-77
2024/02/01 10:40:29;;;;;;;;;;;;;;;5.47;100.00;102618.09;5111876;28;19959;-78
2024/02/01 10:42:59;;;;;;;;;;;;;;;5.50;100.00;102612.47;5112329;28;19920;-78
2024/02/01 10:45:30;;;;;;;;;;;;;;;5.52;100.00;102612.38;5111167;28;20346;-79
2024/02/01 10:47:55;;;;;;;;;;;;;;;5.60;100.00;102616.16;5091880;28;19972;-79
2024/02/01 10:50:21;;;;;;;;;;;;;;;5.68;100.00;102617.34;5094202;28;19946;-78
2024/02/01 10:52:48;;;;;;;;;;;;;;;5.64;100.00;102613.25;5109512;28;20136;-79
2024/02/01 10:55:14;;;;;;;;;;;;;;;5.69;100.00;102613.72;5103501;28;19965;-78
2024/02/01 10:57:42;;;;;;;;;;;;;;;5.75;100.00;102607.91;5092660;28;19919;-77
2024/02/01 11:00:08;;;;;;;;;;;;;;;5.84;100.00;102600.97;5090242;28;19926;-79
2024/02/01 11:02:33;;;;;;;;;;;;;;;5.82;100.00;102592.22;5111545;28;19927;-78
2024/02/01 11:05:00;;;;;;;;;;;;;;;5.82;100.00;102582.41;5092139;28;20386;-76
2024/02/01 11:07:25;;;;;;;;;;;;;;;5.91;100.00;102592.34;5109636;28;19928;-76
2024/02/01 11:09:52;;;;;;;;;;;;;;;5.95;100.00;102602.78;5110943;28;20006;-75
2024/02/01 11:12:22;;;;;;;;;;;;;;;5.95;100.00;102598.28;5111639;28;19972;-76
2024/02/01 11:14:48;;;;;;;;;;;;;;;5.91;100.00;102587.00;5131363;28;19912;-75
2024/02/01 11:17:19;;;;;;;;;;;;;;;6.06;100.00;102594.78;5125819;27;20019;-76
2024/02/01 11:19:46;;;;;;;;;;;;;;;6.20;100.00;102604.34;5113336;28;19988;-75
2024/02/01 11:22:11;;;;;;;;;;;;;;;6.26;100.00;102606.56;5110043;28;20046;-75
2024/02/01 11:24:37;;;;;;;;;;;;;;;6.34;98.55;102592.53;5108935;28;20007;-75
2024/02/01 11:27:12;;;;;;;;;;;;;;;6.15;97.71;102587.84;5092534;28;19935;-76
2024/02/01 11:29:38;;;;;;;;;;;;;;;6.24;98.66;102580.88;5110979;28;19924;-76
2024/02/01 11:32:05;;;;;;;;;;;;;;;6.45;97.89;102592.50;5110481;28;20063;-76
2024/02/01 11:34:31;;;;;;;;;;;;;;;6.61;95.35;102599.25;5111167;28;19930;-75
2024/02/01 11:36:57;;;;;;;;;;;;;;;6.63;96.21;102598.13;5108568;28;19932;-75
2024/02/01 11:39:22;;;;;;;;;;;;;;;6.70;95.32;102606.53;5109564;28;20132;-76
2024/02/01 11:41:51;;;;;;;;;;;;;;;6.76;95.51;102608.69;5107952;28;19928;-75
2024/02/01 11:44:18;;;;;;;;;;;;;;;6.86;93.18;102602.56;5108294;28;19927;-76
2024/02/01 11:46:46;;;;;;;;;;;;;;;6.93;92.96;102598.38;5109734;28;19963;-76
2024/02/01 11:49:18;;;;;;;;;;;;;;;6.93;92.95;102601.91;5107453;28;20326;-76
2024/02/01 11:52:13;;;;;;;;;;;;;;;7.21;91.38;102617.47;5106091;28;19924;-75
2024/02/01 11:54:51;;;;;;;;;;;;;;;7.44;87.94;102624.38;5109909;28;19980;-76
2024/02/01 11:57:21;;;;;;;;;;;;;;;7.92;88.20;102622.06;5110556;28;19926;-76
2024/02/01 11:59:49;;;;;;;;;;;;;;;8.60;85.91;102631.28;5109230;28;19946;-76
2024/02/01 12:02:17;;;;;;;;;;;;;;;9.20;78.65;102632.97;5107582;28;19923;-76
2024/02/01 12:04:45;;;;;;;;;;;;;;;9.14;77.87;102634.41;5111559;28;19923;-76
2024/02/01 12:07:14;;;;;;;;;;;;;;;9.89;75.69;102638.13;5109550;28;20364;-76
2024/02/01 12:09:39;;;;;;;;;;;;;;;10.40;71.36;102641.31;5109153;28;19924;-76
2024/02/01 12:12:04;;;;;;;;;;;;;;;9.76;73.27;102644.69;5110495;28;19927;-76
2024/02/01 12:14:30;;;;;;;;;;;;;;;9.51;75.79;102651.56;5109925;28;19920;-76
2024/02/01 12:16:55;;;;;;;;;;;;;;;9.19;76.58;102648.22;5109920;28;19985;-76
2024/02/01 12:19:27;;;;;;;;;;;;;;;9.13;77.90;102647.97;5108781;28;20316;-76
2024/02/01 12:21:55;;;;;;;;;;;;;;;9.39;76.08;102642.81;5109316;28;19926;-76
2024/02/01 12:24:25;;;;;;;;;;;;;;;9.28;78.55;102645.69;5110339;28;19945;-76
2024/02/01 12:26:50;;;;;;;;;;;;;;;8.60;80.53;102634.81;5109513;28;19920;-75
2024/02/01 12:29:15;;;;;;;;;;;;;;;8.09;82.39;102627.78;5109025;28;19926;-75
2024/02/01 12:31:41;;;;;;;;;;;;;;;8.49;79.98;102635.78;5109924;28;19926;-75
2024/02/01 12:34:06;;;;;;;;;;;;;;;8.97;76.52;102643.19;5110718;28;20483;-75
2024/02/01 12:36:31;;;;;;;;;;;;;;;9.07;75.35;102644.00;5108103;28;20385;-75
2024/02/01 12:38:57;;;;;;;;;;;;;;;9.42;74.76;102647.91;5107563;28;19920;-75
2024/02/01 12:41:22;;;;;;;;;;;;;;;8.61;76.43;102633.84;5107823;28;19924;-75
2024/02/01 12:43:51;;;;;;;;;;;;;;;8.52;78.39;102636.50;5105941;28;19920;-75
2024/02/01 12:46:16;;;;;;;;;;;;;;;8.39;77.88;102634.03;5107670;28;19920;-75
2024/02/01 12:48:41;;;;;;;;;;;;;;;7.98;80.41;102634.91;5110100;28;19930;-75
2024/02/01 12:51:06;;;;;;;;;;;;;;;7.74;80.58;102629.88;5108305;28;19924;-74
2024/02/01 12:53:32;;;;;;;;;;;;;;;7.65;83.48;102628.84;5109073;28;19927;-75
2024/02/01 12:55:57;;;;;;;;;;;;;;;7.92;82.46;102632.78;5091755;28;19984;-74
2024/02/01 12:58:22;;;;;;;;;;;;;;;8.12;80.41;102630.19;5109397;28;19928;-74
2024/02/01 13:00:48;;;;;;;;;;;;;;;7.85;80.27;102626.25;5108568;28;19916;-74
2024/02/01 13:03:13;;;;;;;;;;;;;;;7.76;82.48;102627.91;5106501;28;19920;-74
2024/02/01 13:05:38;;;;;;;;;;;;;;;8.55;81.56;102622.81;5109035;28;19923;-74
2024/02/01 13:08:04;;;;;;;;;;;;;;;9.17;76.36;102630.56;5109209;28;19921;-74
2024/02/01 13:10:30;;;;;;;;;;;;;;;9.12;73.97;102631.00;5109590;28;19920;-74